sensor_id;sensor_type;location;lat;lon;timestamp;P1;durP1;ratioP1;P2;durP2;ratioP2
12910;SDS011;6523;49.758;6.120;2023-07-31T00:00:11;4.03;;;1.93;;
12910;SDS011;6523;49.758;6.120;2023-07-31T00:02:37;2.60;;;2.00;;
12910;SDS011;6523;49.758;6.120;2023-07-31T00:05:03;5.40;;;2.67;;
12910;SDS011;6523;49.758;6.120;2023-07-31T00:07:29;5.27;;;2.60;;
12910;SDS011;6523;49.758;6.120;2023-07-31T00:09:55;4.17;;;2.30;;
12910;SDS011;6523;49.758;6.120;2023-07-31T00:12:21;4.23;;;2.43;;
12910;SDS011;6523;49.758;6.120;2023-07-31T00:14:47;3.03;;;2.00;;
12910;SDS011;6523;49.758;6.120;2023-07-31T00:17:14;3.27;;;2.40;;
12910;SDS011;6523;49.758;6.120;2023-07-31T00:19:40;5.10;;;2.27;;
12910;SDS011;6523;49.758;6.120;2023-07-31T00:22:05;3.60;;;2.23;;
12910;SDS011;6523;49.758;6.120;2023-07-31T00:24:31;5.67;;;2.40;;
12910;SDS011;6523;49.758;6.120;2023-07-31T00:26:56;4.67;;;2.23;;
12910;SDS011;6523;49.758;6.120;2023-07-31T00:29:22;3.63;;;2.47;;
12910;SDS011;6523;49.758;6.120;2023-07-31T00:31:47;3.50;;;2.10;;
12910;SDS011;6523;49.758;6.120;2023-07-31T00:34:13;3.83;;;2.23;;
12910;SDS011;6523;49.758;6.120;2023-07-31T00:36:38;2.67;;;2.03;;
12910;SDS011;6523;49.758;6.120;2023-07-31T00:39:04;6.17;;;2.40;;
12910;SDS011;6523;49.758;6.120;2023-07-31T00:41:30;3.07;;;2.30;;
12910;SDS011;6523;49.758;6.120;2023-07-31T00:43:55;4.27;;;2.23;;
12910;SDS011;6523;49.758;6.120;2023-07-31T00:46:21;6.73;;;2.77;;
12910;SDS011;6523;49.758;6.120;2023-07-31T00:48:46;3.40;;;2.00;;
12910;SDS011;6523;49.758;6.120;2023-07-31T00:51:12;5.70;;;2.77;;
12910;SDS011;6523;49.758;6.120;2023-07-31T00:53:38;3.00;;;2.20;;
12910;SDS011;6523;49.758;6.120;2023-07-31T00:56:05;6.50;;;2.47;;
12910;SDS011;6523;49.758;6.120;2023-07-31T00:58:31;4.23;;;2.40;;
12910;SDS011;6523;49.758;6.120;2023-07-31T01:00:57;3.07;;;2.20;;
12910;SDS011;6523;49.758;6.120;2023-07-31T01:03:22;7.37;;;2.90;;
12910;SDS011;6523;49.758;6.120;2023-07-31T01:11:28;2.90;;;2.30;;
12910;SDS011;6523;49.758;6.120;2023-07-31T01:13:55;2.80;;;2.07;;
12910;SDS011;6523;49.758;6.120;2023-07-31T01:16:22;4.87;;;2.33;;
12910;SDS011;6523;49.758;6.120;2023-07-31T01:18:48;3.73;;;2.30;;
12910;SDS011;6523;49.758;6.120;2023-07-31T01:24:07;6.00;;;2.20;;
12910;SDS011;6523;49.758;6.120;2023-07-31T01:26:58;4.87;;;2.47;;
12910;SDS011;6523;49.758;6.120;2023-07-31T01:32:02;3.93;;;2.43;;
12910;SDS011;6523;49.758;6.120;2023-07-31T01:34:29;4.70;;;2.37;;
12910;SDS011;6523;49.758;6.120;2023-07-31T01:36:57;3.80;;;2.23;;
12910;SDS011;6523;49.758;6.120;2023-07-31T01:39:23;3.53;;;2.30;;
12910;SDS011;6523;49.758;6.120;2023-07-31T01:41:49;6.27;;;2.97;;
12910;SDS011;6523;49.758;6.120;2023-07-31T01:44:14;5.47;;;2.57;;
12910;SDS011;6523;49.758;6.120;2023-07-31T01:46:40;5.53;;;2.30;;
12910;SDS011;6523;49.758;6.120;2023-07-31T01:49:05;4.57;;;2.30;;
12910;SDS011;6523;49.758;6.120;2023-07-31T01:51:31;5.33;;;2.20;;
12910;SDS011;6523;49.758;6.120;2023-07-31T01:53:59;5.53;;;2.40;;
12910;SDS011;6523;49.758;6.120;2023-07-31T01:56:25;3.80;;;2.50;;
12910;SDS011;6523;49.758;6.120;2023-07-31T01:58:50;5.50;;;2.50;;
12910;SDS011;6523;49.758;6.120;2023-07-31T02:01:16;3.40;;;2.40;;
12910;SDS011;6523;49.758;6.120;2023-07-31T02:03:41;5.87;;;2.47;;
12910;SDS011;6523;49.758;6.120;2023-07-31T02:06:07;5.23;;;2.57;;
12910;SDS011;6523;49.758;6.120;2023-07-31T02:08:33;4.60;;;3.43;;
12910;SDS011;6523;49.758;6.120;2023-07-31T02:10:58;6.00;;;2.70;;
12910;SDS011;6523;49.758;6.120;2023-07-31T02:13:24;5.23;;;2.00;;
12910;SDS011;6523;49.758;6.120;2023-07-31T02:15:49;4.30;;;2.27;;
12910;SDS011;6523;49.758;6.120;2023-07-31T02:18:15;3.57;;;2.53;;
12910;SDS011;6523;49.758;6.120;2023-07-31T02:20:41;3.90;;;2.23;;
12910;SDS011;6523;49.758;6.120;2023-07-31T02:23:06;4.10;;;1.93;;
12910;SDS011;6523;49.758;6.120;2023-07-31T02:25:32;6.23;;;2.63;;
12910;SDS011;6523;49.758;6.120;2023-07-31T02:27:58;4.63;;;2.13;;
12910;SDS011;6523;49.758;6.120;2023-07-31T02:30:23;7.00;;;3.07;;
12910;SDS011;6523;49.758;6.120;2023-07-31T02:32:49;3.90;;;2.20;;
12910;SDS011;6523;49.758;6.120;2023-07-31T02:35:15;4.83;;;2.43;;
12910;SDS011;6523;49.758;6.120;2023-07-31T02:37:41;4.17;;;2.33;;
12910;SDS011;6523;49.758;6.120;2023-07-31T02:40:07;4.93;;;2.40;;
12910;SDS011;6523;49.758;6.120;2023-07-31T02:42:33;6.60;;;2.40;;
12910;SDS011;6523;49.758;6.120;2023-07-31T02:44:58;5.57;;;2.63;;
12910;SDS011;6523;49.758;6.120;2023-07-31T02:47:24;5.37;;;2.50;;
12910;SDS011;6523;49.758;6.120;2023-07-31T02:49:50;5.60;;;2.40;;
12910;SDS011;6523;49.758;6.120;2023-07-31T02:52:15;3.37;;;2.30;;
12910;SDS011;6523;49.758;6.120;2023-07-31T02:54:41;4.50;;;3.00;;
12910;SDS011;6523;49.758;6.120;2023-07-31T02:57:06;4.37;;;2.83;;
12910;SDS011;6523;49.758;6.120;2023-07-31T02:59:32;3.77;;;2.67;;
12910;SDS011;6523;49.758;6.120;2023-07-31T03:01:57;6.63;;;3.27;;
12910;SDS011;6523;49.758;6.120;2023-07-31T03:04:23;8.33;;;3.13;;
12910;SDS011;6523;49.758;6.120;2023-07-31T03:06:48;7.43;;;2.57;;
12910;SDS011;6523;49.758;6.120;2023-07-31T03:09:14;4.00;;;2.50;;
12910;SDS011;6523;49.758;6.120;2023-07-31T03:11:39;4.50;;;2.40;;
12910;SDS011;6523;49.758;6.120;2023-07-31T03:14:05;6.00;;;2.37;;
12910;SDS011;6523;49.758;6.120;2023-07-31T03:16:30;4.60;;;2.60;;
12910;SDS011;6523;49.758;6.120;2023-07-31T03:18:56;9.70;;;2.53;;
12910;SDS011;6523;49.758;6.120;2023-07-31T03:21:21;4.80;;;2.47;;
12910;SDS011;6523;49.758;6.120;2023-07-31T03:23:48;4.23;;;2.37;;
12910;SDS011;6523;49.758;6.120;2023-07-31T03:26:13;4.50;;;2.47;;
12910;SDS011;6523;49.758;6.120;2023-07-31T03:28:39;5.37;;;3.03;;
12910;SDS011;6523;49.758;6.120;2023-07-31T03:31:04;5.30;;;2.90;;
12910;SDS011;6523;49.758;6.120;2023-07-31T03:33:30;8.20;;;2.63;;
12910;SDS011;6523;49.758;6.120;2023-07-31T03:35:55;5.37;;;2.60;;
12910;SDS011;6523;49.758;6.120;2023-07-31T03:38:21;4.67;;;2.63;;
12910;SDS011;6523;49.758;6.120;2023-07-31T03:40:47;4.57;;;2.47;;
12910;SDS011;6523;49.758;6.120;2023-07-31T03:43:13;5.70;;;2.73;;
12910;SDS011;6523;49.758;6.120;2023-07-31T03:45:38;4.57;;;2.80;;
12910;SDS011;6523;49.758;6.120;2023-07-31T03:48:04;5.13;;;3.03;;
12910;SDS011;6523;49.758;6.120;2023-07-31T03:50:30;7.37;;;2.90;;
12910;SDS011;6523;49.758;6.120;2023-07-31T03:52:55;5.70;;;2.83;;
12910;SDS011;6523;49.758;6.120;2023-07-31T03:55:21;4.90;;;2.77;;
12910;SDS011;6523;49.758;6.120;2023-07-31T03:57:47;4.97;;;2.63;;
12910;SDS011;6523;49.758;6.120;2023-07-31T04:00:12;5.43;;;3.33;;
12910;SDS011;6523;49.758;6.120;2023-07-31T04:02:38;7.17;;;3.13;;
12910;SDS011;6523;49.758;6.120;2023-07-31T04:05:04;4.97;;;2.80;;
12910;SDS011;6523;49.758;6.120;2023-07-31T04:07:29;6.03;;;3.20;;
12910;SDS011;6523;49.758;6.120;2023-07-31T04:09:56;5.97;;;3.30;;
12910;SDS011;6523;49.758;6.120;2023-07-31T04:12:22;4.97;;;3.00;;
12910;SDS011;6523;49.758;6.120;2023-07-31T04:14:47;7.63;;;3.50;;
12910;SDS011;6523;49.758;6.120;2023-07-31T04:17:13;8.03;;;3.90;;
12910;SDS011;6523;49.758;6.120;2023-07-31T04:19:38;6.57;;;3.73;;
12910;SDS011;6523;49.758;6.120;2023-07-31T04:22:04;4.10;;;2.60;;
12910;SDS011;6523;49.758;6.120;2023-07-31T04:24:29;4.87;;;3.37;;
12910;SDS011;6523;49.758;6.120;2023-07-31T04:26:55;6.43;;;3.67;;
12910;SDS011;6523;49.758;6.120;2023-07-31T04:29:21;7.10;;;3.00;;
12910;SDS011;6523;49.758;6.120;2023-07-31T04:31:47;9.13;;;3.43;;
12910;SDS011;6523;49.758;6.120;2023-07-31T04:34:13;7.43;;;2.93;;
12910;SDS011;6523;49.758;6.120;2023-07-31T04:36:39;5.67;;;3.00;;
12910;SDS011;6523;49.758;6.120;2023-07-31T04:39:04;5.50;;;3.10;;
12910;SDS011;6523;49.758;6.120;2023-07-31T04:41:30;9.60;;;3.10;;
12910;SDS011;6523;49.758;6.120;2023-07-31T04:43:56;4.77;;;2.83;;
12910;SDS011;6523;49.758;6.120;2023-07-31T04:46:21;7.57;;;3.13;;
12910;SDS011;6523;49.758;6.120;2023-07-31T04:48:47;5.43;;;3.00;;
12910;SDS011;6523;49.758;6.120;2023-07-31T04:51:12;7.10;;;2.80;;
12910;SDS011;6523;49.758;6.120;2023-07-31T04:53:38;4.57;;;3.07;;
12910;SDS011;6523;49.758;6.120;2023-07-31T04:56:04;4.63;;;3.20;;
12910;SDS011;6523;49.758;6.120;2023-07-31T04:58:29;4.17;;;2.60;;
12910;SDS011;6523;49.758;6.120;2023-07-31T05:00:55;7.37;;;3.30;;
12910;SDS011;6523;49.758;6.120;2023-07-31T05:03:20;5.00;;;2.80;;
12910;SDS011;6523;49.758;6.120;2023-07-31T05:05:47;7.70;;;3.60;;
12910;SDS011;6523;49.758;6.120;2023-07-31T05:08:12;7.33;;;3.10;;
12910;SDS011;6523;49.758;6.120;2023-07-31T05:10:38;7.70;;;3.20;;
12910;SDS011;6523;49.758;6.120;2023-07-31T05:13:03;6.43;;;2.93;;
12910;SDS011;6523;49.758;6.120;2023-07-31T05:15:29;9.67;;;3.30;;
12910;SDS011;6523;49.758;6.120;2023-07-31T05:17:55;8.90;;;3.13;;
12910;SDS011;6523;49.758;6.120;2023-07-31T05:20:20;6.50;;;3.03;;
12910;SDS011;6523;49.758;6.120;2023-07-31T05:22:46;7.23;;;2.73;;
12910;SDS011;6523;49.758;6.120;2023-07-31T05:25:12;5.07;;;3.37;;
12910;SDS011;6523;49.758;6.120;2023-07-31T05:27:38;3.47;;;2.57;;
12910;SDS011;6523;49.758;6.120;2023-07-31T05:30:03;8.03;;;3.27;;
12910;SDS011;6523;49.758;6.120;2023-07-31T05:32:30;6.43;;;3.00;;
12910;SDS011;6523;49.758;6.120;2023-07-31T05:34:55;3.67;;;2.40;;
12910;SDS011;6523;49.758;6.120;2023-07-31T05:37:21;5.63;;;2.73;;
12910;SDS011;6523;49.758;6.120;2023-07-31T05:39:47;4.20;;;2.70;;
12910;SDS011;6523;49.758;6.120;2023-07-31T05:42:12;6.77;;;2.60;;
12910;SDS011;6523;49.758;6.120;2023-07-31T05:44:38;5.70;;;2.80;;
12910;SDS011;6523;49.758;6.120;2023-07-31T05:47:04;5.53;;;2.90;;
12910;SDS011;6523;49.758;6.120;2023-07-31T05:49:29;6.50;;;3.10;;
12910;SDS011;6523;49.758;6.120;2023-07-31T05:51:55;5.63;;;3.00;;
12910;SDS011;6523;49.758;6.120;2023-07-31T05:54:20;4.70;;;2.40;;
12910;SDS011;6523;49.758;6.120;2023-07-31T05:56:46;6.03;;;3.07;;
12910;SDS011;6523;49.758;6.120;2023-07-31T05:59:12;4.53;;;3.07;;
12910;SDS011;6523;49.758;6.120;2023-07-31T06:01:38;7.80;;;2.53;;
12910;SDS011;6523;49.758;6.120;2023-07-31T06:04:04;7.50;;;2.73;;
12910;SDS011;6523;49.758;6.120;2023-07-31T06:06:29;6.20;;;2.43;;
12910;SDS011;6523;49.758;6.120;2023-07-31T06:08:55;6.60;;;2.67;;
12910;SDS011;6523;49.758;6.120;2023-07-31T06:11:20;4.17;;;2.90;;
12910;SDS011;6523;49.758;6.120;2023-07-31T06:13:46;5.90;;;2.80;;
12910;SDS011;6523;49.758;6.120;2023-07-31T06:16:13;8.13;;;3.00;;
12910;SDS011;6523;49.758;6.120;2023-07-31T06:18:39;4.70;;;2.60;;
12910;SDS011;6523;49.758;6.120;2023-07-31T06:21:05;5.23;;;2.70;;
12910;SDS011;6523;49.758;6.120;2023-07-31T06:23:30;7.13;;;3.20;;
12910;SDS011;6523;49.758;6.120;2023-07-31T06:25:56;4.60;;;2.90;;
12910;SDS011;6523;49.758;6.120;2023-07-31T06:28:23;5.93;;;2.90;;
12910;SDS011;6523;49.758;6.120;2023-07-31T06:30:54;6.23;;;2.43;;
12910;SDS011;6523;49.758;6.120;2023-07-31T06:33:19;5.27;;;2.97;;
12910;SDS011;6523;49.758;6.120;2023-07-31T06:35:45;4.97;;;2.60;;
12910;SDS011;6523;49.758;6.120;2023-07-31T06:38:10;6.53;;;2.87;;
12910;SDS011;6523;49.758;6.120;2023-07-31T06:40:36;7.20;;;2.80;;
12910;SDS011;6523;49.758;6.120;2023-07-31T06:43:02;5.87;;;2.70;;
12910;SDS011;6523;49.758;6.120;2023-07-31T06:45:33;6.27;;;3.50;;
12910;SDS011;6523;49.758;6.120;2023-07-31T06:47:59;5.87;;;2.77;;
12910;SDS011;6523;49.758;6.120;2023-07-31T06:50:26;4.43;;;2.50;;
12910;SDS011;6523;49.758;6.120;2023-07-31T06:52:53;4.10;;;2.63;;
12910;SDS011;6523;49.758;6.120;2023-07-31T06:55:19;6.20;;;2.93;;
12910;SDS011;6523;49.758;6.120;2023-07-31T06:57:47;4.97;;;2.47;;
12910;SDS011;6523;49.758;6.120;2023-07-31T07:00:13;8.83;;;3.07;;
12910;SDS011;6523;49.758;6.120;2023-07-31T07:02:39;5.53;;;3.03;;
12910;SDS011;6523;49.758;6.120;2023-07-31T07:05:04;6.43;;;3.27;;
12910;SDS011;6523;49.758;6.120;2023-07-31T07:07:31;8.53;;;2.93;;
12910;SDS011;6523;49.758;6.120;2023-07-31T07:09:57;3.67;;;2.43;;
12910;SDS011;6523;49.758;6.120;2023-07-31T07:12:24;6.90;;;2.87;;
12910;SDS011;6523;49.758;6.120;2023-07-31T07:14:50;5.17;;;2.77;;
12910;SDS011;6523;49.758;6.120;2023-07-31T07:17:17;4.03;;;2.90;;
12910;SDS011;6523;49.758;6.120;2023-07-31T07:19:43;4.83;;;2.80;;
12910;SDS011;6523;49.758;6.120;2023-07-31T07:22:10;6.17;;;2.80;;
12910;SDS011;6523;49.758;6.120;2023-07-31T07:24:36;6.30;;;2.67;;
12910;SDS011;6523;49.758;6.120;2023-07-31T07:27:02;5.43;;;2.97;;
12910;SDS011;6523;49.758;6.120;2023-07-31T07:29:28;5.63;;;2.57;;
12910;SDS011;6523;49.758;6.120;2023-07-31T07:31:53;5.10;;;2.70;;
12910;SDS011;6523;49.758;6.120;2023-07-31T07:34:19;3.93;;;2.70;;
12910;SDS011;6523;49.758;6.120;2023-07-31T07:36:44;8.03;;;2.70;;
12910;SDS011;6523;49.758;6.120;2023-07-31T07:39:10;3.90;;;2.57;;
12910;SDS011;6523;49.758;6.120;2023-07-31T07:41:36;4.00;;;2.57;;
12910;SDS011;6523;49.758;6.120;2023-07-31T07:44:02;8.93;;;2.80;;
12910;SDS011;6523;49.758;6.120;2023-07-31T07:46:27;5.43;;;3.13;;
12910;SDS011;6523;49.758;6.120;2023-07-31T07:48:53;4.23;;;2.60;;
12910;SDS011;6523;49.758;6.120;2023-07-31T07:51:18;4.80;;;2.53;;
12910;SDS011;6523;49.758;6.120;2023-07-31T07:53:44;6.30;;;2.20;;
12910;SDS011;6523;49.758;6.120;2023-07-31T07:56:09;5.07;;;2.73;;
12910;SDS011;6523;49.758;6.120;2023-07-31T07:58:35;5.13;;;2.67;;
12910;SDS011;6523;49.758;6.120;2023-07-31T08:01:00;4.23;;;2.40;;
12910;SDS011;6523;49.758;6.120;2023-07-31T08:03:26;4.37;;;2.53;;
12910;SDS011;6523;49.758;6.120;2023-07-31T08:05:51;4.83;;;2.23;;
12910;SDS011;6523;49.758;6.120;2023-07-31T08:08:17;3.37;;;1.97;;
12910;SDS011;6523;49.758;6.120;2023-07-31T08:10:43;3.83;;;2.20;;
12910;SDS011;6523;49.758;6.120;2023-07-31T08:13:12;4.30;;;2.50;;
12910;SDS011;6523;49.758;6.120;2023-07-31T08:15:37;5.80;;;2.30;;
12910;SDS011;6523;49.758;6.120;2023-07-31T08:18:03;3.17;;;2.33;;
12910;SDS011;6523;49.758;6.120;2023-07-31T08:20:28;4.53;;;2.00;;
12910;SDS011;6523;49.758;6.120;2023-07-31T08:22:54;3.90;;;2.07;;
12910;SDS011;6523;49.758;6.120;2023-07-31T08:25:20;3.97;;;1.97;;
12910;SDS011;6523;49.758;6.120;2023-07-31T08:27:45;3.87;;;1.93;;
12910;SDS011;6523;49.758;6.120;2023-07-31T08:30:11;4.30;;;2.80;;
12910;SDS011;6523;49.758;6.120;2023-07-31T08:32:37;3.53;;;2.20;;
12910;SDS011;6523;49.758;6.120;2023-07-31T08:35:03;4.37;;;2.53;;
12910;SDS011;6523;49.758;6.120;2023-07-31T08:37:29;3.27;;;1.83;;
12910;SDS011;6523;49.758;6.120;2023-07-31T08:39:54;2.73;;;2.30;;
12910;SDS011;6523;49.758;6.120;2023-07-31T08:42:20;3.30;;;1.97;;
12910;SDS011;6523;49.758;6.120;2023-07-31T08:44:46;3.33;;;2.47;;
12910;SDS011;6523;49.758;6.120;2023-07-31T08:47:12;4.37;;;1.97;;
12910;SDS011;6523;49.758;6.120;2023-07-31T08:49:39;3.30;;;2.10;;
12910;SDS011;6523;49.758;6.120;2023-07-31T08:52:07;2.73;;;2.10;;
12910;SDS011;6523;49.758;6.120;2023-07-31T08:54:32;5.33;;;2.20;;
12910;SDS011;6523;49.758;6.120;2023-07-31T08:56:58;3.77;;;2.30;;
12910;SDS011;6523;49.758;6.120;2023-07-31T08:59:26;2.97;;;2.30;;
12910;SDS011;6523;49.758;6.120;2023-07-31T09:01:55;2.90;;;2.10;;
12910;SDS011;6523;49.758;6.120;2023-07-31T09:04:26;3.97;;;2.10;;
12910;SDS011;6523;49.758;6.120;2023-07-31T09:06:54;3.77;;;2.10;;
12910;SDS011;6523;49.758;6.120;2023-07-31T09:09:24;5.37;;;2.13;;
12910;SDS011;6523;49.758;6.120;2023-07-31T09:11:50;4.40;;;2.07;;
12910;SDS011;6523;49.758;6.120;2023-07-31T09:14:17;2.63;;;2.00;;
12910;SDS011;6523;49.758;6.120;2023-07-31T09:17:28;3.10;;;2.00;;
12910;SDS011;6523;49.758;6.120;2023-07-31T09:19:35;3.67;;;1.87;;
12910;SDS011;6523;49.758;6.120;2023-07-31T09:22:04;4.00;;;2.20;;
12910;SDS011;6523;49.758;6.120;2023-07-31T09:24:31;2.40;;;1.97;;
12910;SDS011;6523;49.758;6.120;2023-07-31T09:26:59;2.30;;;1.73;;
12910;SDS011;6523;49.758;6.120;2023-07-31T09:29:25;2.90;;;2.00;;
12910;SDS011;6523;49.758;6.120;2023-07-31T09:31:52;2.90;;;1.67;;
12910;SDS011;6523;49.758;6.120;2023-07-31T09:34:19;2.80;;;1.90;;
12910;SDS011;6523;49.758;6.120;2023-07-31T09:36:46;2.73;;;2.07;;
12910;SDS011;6523;49.758;6.120;2023-07-31T09:39:13;3.67;;;1.70;;
12910;SDS011;6523;49.758;6.120;2023-07-31T09:41:44;2.43;;;1.90;;
12910;SDS011;6523;49.758;6.120;2023-07-31T09:44:12;3.27;;;1.73;;
12910;SDS011;6523;49.758;6.120;2023-07-31T09:46:37;3.57;;;2.30;;
12910;SDS011;6523;49.758;6.120;2023-07-31T09:49:07;3.43;;;1.87;;
12910;SDS011;6523;49.758;6.120;2023-07-31T09:51:42;2.63;;;1.60;;
12910;SDS011;6523;49.758;6.120;2023-07-31T09:54:11;1.93;;;1.60;;
12910;SDS011;6523;49.758;6.120;2023-07-31T09:56:44;2.23;;;1.80;;
12910;SDS011;6523;49.758;6.120;2023-07-31T09:59:12;2.43;;;1.67;;
12910;SDS011;6523;49.758;6.120;2023-07-31T10:01:40;3.97;;;2.03;;
12910;SDS011;6523;49.758;6.120;2023-07-31T10:04:07;3.23;;;2.20;;
12910;SDS011;6523;49.758;6.120;2023-07-31T10:06:35;2.80;;;1.93;;
12910;SDS011;6523;49.758;6.120;2023-07-31T10:09:02;4.53;;;1.97;;
12910;SDS011;6523;49.758;6.120;2023-07-31T10:11:30;4.97;;;2.23;;
12910;SDS011;6523;49.758;6.120;2023-07-31T10:14:03;3.77;;;2.13;;
12910;SDS011;6523;49.758;6.120;2023-07-31T10:16:30;3.40;;;1.90;;
12910;SDS011;6523;49.758;6.120;2023-07-31T10:18:56;2.90;;;2.03;;
12910;SDS011;6523;49.758;6.120;2023-07-31T10:21:23;2.60;;;1.97;;
12910;SDS011;6523;49.758;6.120;2023-07-31T10:23:48;4.17;;;2.40;;
12910;SDS011;6523;49.758;6.120;2023-07-31T10:26:16;3.87;;;2.07;;
12910;SDS011;6523;49.758;6.120;2023-07-31T10:28:44;2.80;;;2.13;;
12910;SDS011;6523;49.758;6.120;2023-07-31T10:31:11;2.73;;;1.93;;
12910;SDS011;6523;49.758;6.120;2023-07-31T10:33:37;2.43;;;1.67;;
12910;SDS011;6523;49.758;6.120;2023-07-31T10:38:58;2.20;;;1.90;;
12910;SDS011;6523;49.758;6.120;2023-07-31T10:41:32;3.00;;;2.13;;
12910;SDS011;6523;49.758;6.120;2023-07-31T10:44:01;2.07;;;1.83;;
12910;SDS011;6523;49.758;6.120;2023-07-31T10:46:29;3.57;;;2.00;;
12910;SDS011;6523;49.758;6.120;2023-07-31T10:48:58;2.57;;;2.20;;
12910;SDS011;6523;49.758;6.120;2023-07-31T10:51:32;2.80;;;1.83;;
12910;SDS011;6523;49.758;6.120;2023-07-31T10:54:11;4.87;;;2.13;;
12910;SDS011;6523;49.758;6.120;2023-07-31T10:56:46;2.93;;;2.10;;
12910;SDS011;6523;49.758;6.120;2023-07-31T10:59:12;4.73;;;2.53;;
12910;SDS011;6523;49.758;6.120;2023-07-31T11:04:25;4.23;;;2.17;;
12910;SDS011;6523;49.758;6.120;2023-07-31T11:06:55;4.00;;;2.13;;
12910;SDS011;6523;49.758;6.120;2023-07-31T11:09:28;4.60;;;2.50;;
12910;SDS011;6523;49.758;6.120;2023-07-31T11:11:55;3.43;;;2.17;;
12910;SDS011;6523;49.758;6.120;2023-07-31T11:14:21;4.33;;;2.37;;
12910;SDS011;6523;49.758;6.120;2023-07-31T11:16:49;5.17;;;2.60;;
12910;SDS011;6523;49.758;6.120;2023-07-31T11:19:23;5.77;;;3.00;;
12910;SDS011;6523;49.758;6.120;2023-07-31T11:21:49;4.20;;;2.60;;
12910;SDS011;6523;49.758;6.120;2023-07-31T11:24:16;5.60;;;2.70;;
12910;SDS011;6523;49.758;6.120;2023-07-31T11:26:51;5.10;;;2.70;;
12910;SDS011;6523;49.758;6.120;2023-07-31T11:29:21;5.27;;;2.80;;
12910;SDS011;6523;49.758;6.120;2023-07-31T11:31:52;4.47;;;2.53;;
12910;SDS011;6523;49.758;6.120;2023-07-31T11:34:18;3.67;;;2.53;;
12910;SDS011;6523;49.758;6.120;2023-07-31T11:36:54;4.73;;;2.27;;
12910;SDS011;6523;49.758;6.120;2023-07-31T11:39:20;4.30;;;2.50;;
12910;SDS011;6523;49.758;6.120;2023-07-31T11:41:46;3.10;;;2.33;;
12910;SDS011;6523;49.758;6.120;2023-07-31T11:44:11;4.67;;;2.60;;
12910;SDS011;6523;49.758;6.120;2023-07-31T11:46:37;5.00;;;2.80;;
12910;SDS011;6523;49.758;6.120;2023-07-31T11:49:03;4.83;;;2.30;;
12910;SDS011;6523;49.758;6.120;2023-07-31T11:51:29;3.43;;;2.20;;
12910;SDS011;6523;49.758;6.120;2023-07-31T11:53:56;3.70;;;2.33;;
12910;SDS011;6523;49.758;6.120;2023-07-31T11:56:24;3.77;;;2.00;;
12910;SDS011;6523;49.758;6.120;2023-07-31T11:58:55;3.47;;;2.53;;
12910;SDS011;6523;49.758;6.120;2023-07-31T12:01:23;3.50;;;2.40;;
12910;SDS011;6523;49.758;6.120;2023-07-31T12:03:51;4.30;;;2.30;;
12910;SDS011;6523;49.758;6.120;2023-07-31T12:06:17;4.37;;;2.53;;
12910;SDS011;6523;49.758;6.120;2023-07-31T12:08:45;2.40;;;2.13;;
12910;SDS011;6523;49.758;6.120;2023-07-31T12:11:11;4.23;;;2.40;;
12910;SDS011;6523;49.758;6.120;2023-07-31T12:13:38;3.30;;;1.97;;
12910;SDS011;6523;49.758;6.120;2023-07-31T12:16:04;4.10;;;2.10;;
12910;SDS011;6523;49.758;6.120;2023-07-31T12:18:30;2.87;;;2.03;;
12910;SDS011;6523;49.758;6.120;2023-07-31T12:21:03;3.00;;;1.90;;
12910;SDS011;6523;49.758;6.120;2023-07-31T12:23:34;4.80;;;2.30;;
12910;SDS011;6523;49.758;6.120;2023-07-31T12:26:07;4.30;;;2.60;;
12910;SDS011;6523;49.758;6.120;2023-07-31T12:28:37;3.17;;;2.40;;
12910;SDS011;6523;49.758;6.120;2023-07-31T12:31:14;3.33;;;2.50;;
12910;SDS011;6523;49.758;6.120;2023-07-31T12:33:42;3.57;;;3.00;;
12910;SDS011;6523;49.758;6.120;2023-07-31T12:36:12;5.77;;;3.07;;
12910;SDS011;6523;49.758;6.120;2023-07-31T12:38:39;4.40;;;2.70;;
12910;SDS011;6523;49.758;6.120;2023-07-31T12:41:05;5.03;;;2.90;;
12910;SDS011;6523;49.758;6.120;2023-07-31T12:43:34;6.17;;;3.13;;
12910;SDS011;6523;49.758;6.120;2023-07-31T12:46:00;7.13;;;3.23;;
12910;SDS011;6523;49.758;6.120;2023-07-31T12:48:26;4.60;;;3.50;;
12910;SDS011;6523;49.758;6.120;2023-07-31T12:50:51;5.70;;;3.33;;
12910;SDS011;6523;49.758;6.120;2023-07-31T12:53:17;6.00;;;3.40;;
12910;SDS011;6523;49.758;6.120;2023-07-31T12:55:43;3.83;;;3.00;;
12910;SDS011;6523;49.758;6.120;2023-07-31T12:58:08;9.67;;;3.30;;
12910;SDS011;6523;49.758;6.120;2023-07-31T13:00:34;6.90;;;3.50;;
12910;SDS011;6523;49.758;6.120;2023-07-31T13:03:00;5.63;;;3.30;;
12910;SDS011;6523;49.758;6.120;2023-07-31T13:05:26;5.90;;;3.20;;
12910;SDS011;6523;49.758;6.120;2023-07-31T13:07:52;6.10;;;3.70;;
12910;SDS011;6523;49.758;6.120;2023-07-31T13:10:18;7.80;;;3.57;;
12910;SDS011;6523;49.758;6.120;2023-07-31T13:12:44;7.97;;;4.20;;
12910;SDS011;6523;49.758;6.120;2023-07-31T13:15:09;6.57;;;3.60;;
12910;SDS011;6523;49.758;6.120;2023-07-31T13:17:36;6.27;;;3.50;;
12910;SDS011;6523;49.758;6.120;2023-07-31T13:20:01;8.93;;;3.83;;
12910;SDS011;6523;49.758;6.120;2023-07-31T13:22:28;4.87;;;3.30;;
12910;SDS011;6523;49.758;6.120;2023-07-31T13:24:53;6.87;;;3.40;;
12910;SDS011;6523;49.758;6.120;2023-07-31T13:27:19;6.20;;;2.83;;
12910;SDS011;6523;49.758;6.120;2023-07-31T13:29:46;6.07;;;3.70;;
12910;SDS011;6523;49.758;6.120;2023-07-31T13:32:19;8.23;;;3.73;;
12910;SDS011;6523;49.758;6.120;2023-07-31T13:34:46;6.30;;;4.00;;
12910;SDS011;6523;49.758;6.120;2023-07-31T13:37:12;5.90;;;3.07;;
12910;SDS011;6523;49.758;6.120;2023-07-31T13:39:38;7.90;;;3.70;;
12910;SDS011;6523;49.758;6.120;2023-07-31T13:42:04;5.87;;;3.23;;
12910;SDS011;6523;49.758;6.120;2023-07-31T13:44:37;8.23;;;3.60;;
12910;SDS011;6523;49.758;6.120;2023-07-31T13:47:03;6.13;;;3.47;;
12910;SDS011;6523;49.758;6.120;2023-07-31T13:49:29;5.63;;;3.13;;
12910;SDS011;6523;49.758;6.120;2023-07-31T13:51:55;6.73;;;3.53;;
12910;SDS011;6523;49.758;6.120;2023-07-31T13:54:22;6.53;;;3.40;;
12910;SDS011;6523;49.758;6.120;2023-07-31T13:56:48;8.00;;;3.83;;
12910;SDS011;6523;49.758;6.120;2023-07-31T13:59:13;5.67;;;3.23;;
12910;SDS011;6523;49.758;6.120;2023-07-31T14:01:41;4.77;;;3.27;;
12910;SDS011;6523;49.758;6.120;2023-07-31T14:04:06;7.27;;;3.40;;
12910;SDS011;6523;49.758;6.120;2023-07-31T14:06:32;8.50;;;3.83;;
12910;SDS011;6523;49.758;6.120;2023-07-31T14:08:57;8.97;;;3.90;;
12910;SDS011;6523;49.758;6.120;2023-07-31T14:11:23;7.07;;;3.77;;
12910;SDS011;6523;49.758;6.120;2023-07-31T14:13:49;7.53;;;3.60;;
12910;SDS011;6523;49.758;6.120;2023-07-31T14:16:16;6.07;;;3.83;;
12910;SDS011;6523;49.758;6.120;2023-07-31T14:18:42;6.37;;;3.80;;
12910;SDS011;6523;49.758;6.120;2023-07-31T14:21:07;8.73;;;3.87;;
12910;SDS011;6523;49.758;6.120;2023-07-31T14:23:33;7.87;;;4.07;;
12910;SDS011;6523;49.758;6.120;2023-07-31T14:25:59;7.50;;;4.00;;
12910;SDS011;6523;49.758;6.120;2023-07-31T14:28:25;7.40;;;3.90;;
12910;SDS011;6523;49.758;6.120;2023-07-31T14:30:50;8.27;;;4.00;;
12910;SDS011;6523;49.758;6.120;2023-07-31T14:33:16;6.43;;;3.90;;
12910;SDS011;6523;49.758;6.120;2023-07-31T14:35:42;6.23;;;3.37;;
12910;SDS011;6523;49.758;6.120;2023-07-31T14:38:07;8.43;;;3.90;;
12910;SDS011;6523;49.758;6.120;2023-07-31T14:40:33;7.00;;;4.17;;
12910;SDS011;6523;49.758;6.120;2023-07-31T14:42:58;7.67;;;4.07;;
12910;SDS011;6523;49.758;6.120;2023-07-31T14:45:24;7.03;;;4.10;;
12910;SDS011;6523;49.758;6.120;2023-07-31T14:47:49;7.30;;;3.87;;
12910;SDS011;6523;49.758;6.120;2023-07-31T14:50:15;5.07;;;3.90;;
12910;SDS011;6523;49.758;6.120;2023-07-31T14:52:41;8.30;;;4.67;;
12910;SDS011;6523;49.758;6.120;2023-07-31T14:55:06;7.17;;;4.43;;
12910;SDS011;6523;49.758;6.120;2023-07-31T14:57:33;6.53;;;4.53;;
12910;SDS011;6523;49.758;6.120;2023-07-31T14:59:59;8.40;;;4.43;;
12910;SDS011;6523;49.758;6.120;2023-07-31T15:02:25;9.17;;;4.20;;
12910;SDS011;6523;49.758;6.120;2023-07-31T15:04:51;7.63;;;4.53;;
12910;SDS011;6523;49.758;6.120;2023-07-31T15:07:17;10.93;;;6.27;;
12910;SDS011;6523;49.758;6.120;2023-07-31T15:09:42;5.60;;;4.17;;
12910;SDS011;6523;49.758;6.120;2023-07-31T15:12:08;7.23;;;4.23;;